createdAt,value
2022-09-14T00:01:25.188Z,17.49
2022-09-14T00:03:54.005Z,17.39
2022-09-14T00:06:21.058Z,17.33
2022-09-14T00:08:51.215Z,17.42
2022-09-14T00:11:17.650Z,17.37
2022-09-14T00:13:44.888Z,17.46
2022-09-14T00:16:19.910Z,17.41
2022-09-14T00:18:54.617Z,17.37
2022-09-14T00:21:21.719Z,17.32
2022-09-14T00:23:48.447Z,17.36
2022-09-14T00:26:17.026Z,17.34
2022-09-14T00:28:49.546Z,17.34
2022-09-14T00:31:16.930Z,17.36
2022-09-14T00:33:44.501Z,17.37
2022-09-14T00:36:16.395Z,17.41
2022-09-14T00:38:42.996Z,17.38
2022-09-14T00:41:13.126Z,17.47
2022-09-14T00:43:53.791Z,17.46
2022-09-14T00:46:20.792Z,17.40
2022-09-14T00:48:47.463Z,17.40
2022-09-14T00:51:15.401Z,17.35
2022-09-14T00:53:41.955Z,17.44
2022-09-14T00:56:08.460Z,17.57
2022-09-14T00:58:35.045Z,17.60
2022-09-14T01:01:02.544Z,17.56
2022-09-14T01:03:29.023Z,17.47
2022-09-14T01:06:26.251Z,17.42
2022-09-14T01:09:04.730Z,17.40
2022-09-14T01:11:56.229Z,17.39
2022-09-14T01:14:31.656Z,17.26
2022-09-14T01:17:12.381Z,17.23
2022-09-14T01:20:00.329Z,17.17
2022-09-14T01:23:03.776Z,17.22
2022-09-14T01:25:57.927Z,17.24
2022-09-14T01:28:56.250Z,17.26
2022-09-14T01:31:28.779Z,17.11
2022-09-14T01:34:05.658Z,16.99
2022-09-14T01:36:32.974Z,17.05
2022-09-14T01:38:59.996Z,16.95
2022-09-14T01:41:31.291Z,16.85
2022-09-14T01:44:14.919Z,16.84
2022-09-14T01:46:45.259Z,16.81
2022-09-14T01:49:32.999Z,16.73
2022-09-14T01:52:09.189Z,16.67
2022-09-14T01:55:01.338Z,16.75
2022-09-14T01:57:35.613Z,16.77
2022-09-14T02:00:07.856Z,16.74
2022-09-14T02:02:39.760Z,16.73
2022-09-14T02:05:18.405Z,16.76
2022-09-14T02:07:44.858Z,16.87
2022-09-14T02:10:12.735Z,16.90
2022-09-14T02:12:40.132Z,16.93
2022-09-14T02:15:08.573Z,16.95
2022-09-14T02:17:35.060Z,16.86
2022-09-14T02:20:04.169Z,16.97
2022-09-14T02:22:31.216Z,16.94
2022-09-14T02:24:57.853Z,16.85
2022-09-14T02:27:24.869Z,16.98
2022-09-14T02:29:51.954Z,16.97
2022-09-14T02:32:27.337Z,17.00
2022-09-14T02:35:02.855Z,16.93
2022-09-14T02:37:43.074Z,16.87
2022-09-14T02:40:24.754Z,16.84
2022-09-14T02:43:00.112Z,16.86
2022-09-14T02:45:35.830Z,16.85
2022-09-14T02:48:08.092Z,16.66
2022-09-14T02:50:51.723Z,16.74
2022-09-14T02:53:35.059Z,16.67
2022-09-14T02:56:05.664Z,16.73
2022-09-14T02:58:36.966Z,16.72
2022-09-14T03:01:04.786Z,16.66
2022-09-14T03:03:35.465Z,16.73
2022-09-14T03:06:02.294Z,16.65
2022-09-14T03:08:28.722Z,16.70
2022-09-14T03:10:55.252Z,16.76
2022-09-14T03:13:21.914Z,16.69
2022-09-14T03:15:48.394Z,16.74
2022-09-14T03:18:15.108Z,16.58
2022-09-14T03:20:41.545Z,16.63
2022-09-14T03:23:09.161Z,16.55
2022-09-14T03:25:42.072Z,16.55
2022-09-14T03:28:09.525Z,16.43
2022-09-14T03:30:36.506Z,16.42
2022-09-14T03:33:03.233Z,16.47
2022-09-14T03:35:31.398Z,16.46
2022-09-14T03:37:59.473Z,16.42
2022-09-14T03:40:26.191Z,16.33
2022-09-14T03:42:54.045Z,16.28
2022-09-14T03:45:20.967Z,16.48
2022-09-14T03:47:47.823Z,16.48
2022-09-14T03:50:15.665Z,16.61
2022-09-14T03:52:42.379Z,16.63
2022-09-14T03:55:09.556Z,16.65
2022-09-14T03:57:36.294Z,16.70
2022-09-14T04:00:03.654Z,16.60
2022-09-14T04:02:30.131Z,16.67
2022-09-14T04:04:56.587Z,16.60
2022-09-14T04:07:22.977Z,16.65
2022-09-14T04:09:49.393Z,16.70
2022-09-14T04:12:15.818Z,16.69
2022-09-14T04:14:42.266Z,16.59
2022-09-14T04:17:08.666Z,16.67
2022-09-14T04:19:37.494Z,16.75
2022-09-14T04:22:04.785Z,16.70
2022-09-14T04:24:31.580Z,16.70
2022-09-14T04:26:58.211Z,16.57
2022-09-14T04:29:24.597Z,16.57
2022-09-14T04:31:50.987Z,16.55
2022-09-14T04:34:17.398Z,16.50
2022-09-14T04:36:43.794Z,16.46
2022-09-14T04:39:12.112Z,16.52
2022-09-14T04:41:38.504Z,16.58
2022-09-14T04:44:04.913Z,16.56
2022-09-14T04:46:35.041Z,16.59
2022-09-14T04:49:02.089Z,16.57
2022-09-14T04:51:30.062Z,16.59
2022-09-14T04:53:57.897Z,16.51
2022-09-14T04:56:25.209Z,16.57
2022-09-14T04:58:54.251Z,16.66
2022-09-14T05:01:23.980Z,16.79
2022-09-14T05:03:51.400Z,16.79
2022-09-14T05:06:25.787Z,16.83
2022-09-14T05:08:53.408Z,16.90
2022-09-14T05:11:22.950Z,16.85
2022-09-14T05:13:50.412Z,16.94
2022-09-14T05:16:22.968Z,16.94
2022-09-14T05:18:50.244Z,16.95
2022-09-14T05:21:18.407Z,17.10
2022-09-14T05:23:44.978Z,17.16
2022-09-14T05:26:11.931Z,17.35
2022-09-14T05:28:38.780Z,17.45
2022-09-14T05:31:06.976Z,17.56
2022-09-14T05:33:34.044Z,17.53
2022-09-14T05:36:08.028Z,17.74
2022-09-14T05:38:36.821Z,17.73
2022-09-14T05:41:04.143Z,17.77
2022-09-14T05:43:31.271Z,17.80
2022-09-14T05:46:02.523Z,18.00
2022-09-14T05:48:33.003Z,18.07
2022-09-14T05:51:04.046Z,18.24
2022-09-14T05:53:30.836Z,18.21
2022-09-14T05:56:12.050Z,18.29
2022-09-14T05:58:39.137Z,18.44
2022-09-14T06:01:17.678Z,18.47
2022-09-14T06:03:44.991Z,18.64
2022-09-14T06:06:13.326Z,18.54
2022-09-14T06:08:40.187Z,18.61
2022-09-14T06:11:09.272Z,18.57
2022-09-14T06:13:35.923Z,18.76
2022-09-14T06:16:09.415Z,18.73
2022-09-14T06:18:36.904Z,18.77
2022-09-14T06:21:04.486Z,18.85
2022-09-14T06:23:31.753Z,18.95
2022-09-14T06:26:00.130Z,19.02
2022-09-14T06:28:27.897Z,19.18
2022-09-14T06:30:54.855Z,19.36
2022-09-14T06:33:21.363Z,19.50
2022-09-14T06:35:58.458Z,19.66
2022-09-14T06:38:26.135Z,19.81
2022-09-14T06:40:54.269Z,19.89
2022-09-14T06:43:20.881Z,20.20
2022-09-14T06:46:01.891Z,20.08
2022-09-14T06:48:35.185Z,20.21
2022-09-14T06:51:13.672Z,20.21
2022-09-14T06:53:40.369Z,20.42
2022-09-14T06:56:06.883Z,20.41
2022-09-14T06:58:34.177Z,20.51
2022-09-14T07:01:05.784Z,20.55
2022-09-14T07:03:34.722Z,20.59
2022-09-14T07:06:03.096Z,20.52
2022-09-14T07:08:29.638Z,20.58
2022-09-14T07:10:57.353Z,20.68
2022-09-14T07:13:23.861Z,20.70
2022-09-14T07:15:50.769Z,20.88
2022-09-14T07:18:17.325Z,20.88
2022-09-14T07:20:43.917Z,21.00
2022-09-14T07:23:12.988Z,21.04
2022-09-14T07:25:39.408Z,20.95
2022-09-14T07:28:06.641Z,21.12
2022-09-14T07:30:37.649Z,21.16
2022-09-14T07:33:08.063Z,21.37
2022-09-14T07:35:34.521Z,21.27
2022-09-14T07:38:01.223Z,21.56
2022-09-14T07:40:27.823Z,21.69
2022-09-14T07:42:57.650Z,22.02
2022-09-14T07:45:24.456Z,22.16
2022-09-14T07:47:51.070Z,22.18
2022-09-14T07:50:18.150Z,22.21
2022-09-14T07:52:45.038Z,22.16
2022-09-14T07:55:12.511Z,22.26
2022-09-14T07:57:55.127Z,22.34
2022-09-14T08:00:22.064Z,22.43
2022-09-14T08:02:52.563Z,22.19
2022-09-14T08:05:19.686Z,22.38
2022-09-14T08:07:46.383Z,22.48
2022-09-14T08:10:13.104Z,22.15
2022-09-14T08:12:39.489Z,22.18
2022-09-14T08:15:14.425Z,22.37
2022-09-14T08:17:40.860Z,22.58
2022-09-14T08:20:07.608Z,22.39
2022-09-14T08:22:34.102Z,22.36
2022-09-14T08:25:00.544Z,22.82
2022-09-14T08:27:26.959Z,23.13
2022-09-14T08:29:54.336Z,23.48
2022-09-14T08:32:20.726Z,23.50
2022-09-14T08:34:47.839Z,23.38
2022-09-14T08:37:15.057Z,23.51
2022-09-14T08:39:41.707Z,23.82
2022-09-14T08:42:14.596Z,23.79
2022-09-14T08:44:43.392Z,23.59
2022-09-14T08:47:19.233Z,23.65
2022-09-14T08:50:06.368Z,23.70
2022-09-14T08:52:38.720Z,23.73
2022-09-14T08:55:37.761Z,23.94
2022-09-14T08:58:10.068Z,24.02
2022-09-14T09:00:42.951Z,24.21
2022-09-14T09:03:22.049Z,24.34
2022-09-14T09:06:15.797Z,24.17
2022-09-14T09:09:03.094Z,24.36
2022-09-14T09:11:37.128Z,24.58
2022-09-14T09:14:16.287Z,24.90
2022-09-14T09:16:47.543Z,25.14
2022-09-14T09:19:19.870Z,25.20
2022-09-14T09:21:47.812Z,25.09
2022-09-14T09:24:36.902Z,24.87
2022-09-14T09:27:10.588Z,25.08
2022-09-14T09:29:37.046Z,25.57
2022-09-14T09:32:05.053Z,25.35
2022-09-14T09:34:33.845Z,25.48
2022-09-14T09:37:00.950Z,25.43
2022-09-14T09:39:30.516Z,25.28
2022-09-14T09:42:03.498Z,25.59
2022-09-14T09:44:29.976Z,25.80
2022-09-14T09:46:59.561Z,25.94
2022-09-14T09:49:35.696Z,26.05
2022-09-14T09:52:13.551Z,26.30
2022-09-14T09:54:41.707Z,25.81
2022-09-14T09:57:23.065Z,25.69
2022-09-14T09:59:50.036Z,25.95
2022-09-14T10:02:25.644Z,26.12
2022-09-14T10:05:11.138Z,26.44
2022-09-14T10:07:43.212Z,26.43
2022-09-14T10:10:15.324Z,26.04
2022-09-14T10:12:50.109Z,25.94
2022-09-14T10:15:26.885Z,25.94
2022-09-14T10:18:09.173Z,25.87
2022-09-14T10:20:59.581Z,25.53
2022-09-14T10:23:28.140Z,25.52
2022-09-14T10:26:13.332Z,25.60
2022-09-14T10:28:45.578Z,25.72
2022-09-14T10:31:12.166Z,25.71
2022-09-14T10:33:38.691Z,25.61
2022-09-14T10:36:16.032Z,25.56
2022-09-14T10:38:52.979Z,25.79
2022-09-14T10:41:31.971Z,25.72
2022-09-14T10:44:19.539Z,25.32
2022-09-14T10:47:26.476Z,25.07
2022-09-14T10:50:26.918Z,25.02
2022-09-14T10:53:12.087Z,25.30
2022-09-14T10:55:47.153Z,25.53
2022-09-14T10:58:50.895Z,25.91
2022-09-14T11:01:40.729Z,25.76
2022-09-14T11:04:32.234Z,26.09
2022-09-14T11:07:08.105Z,26.42
2022-09-14T11:09:42.065Z,26.52
2022-09-14T11:12:21.712Z,26.15
2022-09-14T11:14:51.662Z,26.17
2022-09-14T11:17:30.131Z,26.35
2022-09-14T11:20:26.546Z,26.66
2022-09-14T11:23:06.584Z,26.60
2022-09-14T11:25:49.171Z,26.76
2022-09-14T11:28:25.796Z,26.89
2022-09-14T11:30:56.748Z,27.11
2022-09-14T11:33:31.356Z,27.07
2022-09-14T11:36:05.168Z,26.80
2022-09-14T11:38:36.561Z,26.48
2022-09-14T11:41:22.676Z,26.64
2022-09-14T11:44:02.128Z,26.90
2022-09-14T11:46:35.139Z,27.06
2022-09-14T11:49:19.017Z,26.82
2022-09-14T11:52:31.171Z,25.83
2022-09-14T11:54:59.052Z,25.47
2022-09-14T11:57:32.212Z,25.42
2022-09-14T12:00:00.391Z,25.35
2022-09-14T12:02:27.547Z,24.69
2022-09-14T12:05:06.381Z,24.65
2022-09-14T12:07:47.877Z,24.49
2022-09-14T12:10:18.280Z,24.46
2022-09-14T12:12:52.578Z,24.68
2022-09-14T12:15:31.567Z,24.82
2022-09-14T12:18:07.048Z,24.99
2022-09-14T12:20:43.473Z,25.14
2022-09-14T12:23:16.158Z,25.23
2022-09-14T12:26:06.792Z,25.34
2022-09-14T12:28:36.415Z,25.28
2022-09-14T12:31:03.355Z,25.49
2022-09-14T12:33:33.057Z,25.46
2022-09-14T12:36:19.751Z,25.42
2022-09-14T12:38:49.347Z,25.47
2022-09-14T12:41:15.762Z,25.51
2022-09-14T12:43:42.085Z,25.52
2022-09-14T12:46:09.587Z,25.71
2022-09-14T12:48:55.507Z,25.37
2022-09-14T12:51:31.408Z,25.43
2022-09-14T12:54:01.309Z,25.51
2022-09-14T12:56:38.063Z,25.64
2022-09-14T12:59:20.735Z,26.05
2022-09-14T13:02:03.230Z,26.02
2022-09-14T13:04:35.061Z,26.19
2022-09-14T13:07:03.185Z,26.29
2022-09-14T13:09:31.945Z,26.54
2022-09-14T13:12:02.119Z,26.88
2022-09-14T13:14:32.528Z,27.34
2022-09-14T13:17:00.164Z,27.86
2022-09-14T13:19:29.102Z,27.99
2022-09-14T13:21:58.056Z,28.01
2022-09-14T13:24:28.682Z,27.79
2022-09-14T13:26:56.695Z,27.15
2022-09-14T13:29:24.656Z,26.95
2022-09-14T13:31:51.125Z,26.38
2022-09-14T13:34:45.743Z,26.50
2022-09-14T13:37:15.285Z,26.09
2022-09-14T13:39:46.076Z,26.05
2022-09-14T13:42:12.536Z,26.01
2022-09-14T13:44:48.117Z,25.66
2022-09-14T13:47:17.414Z,24.66
2022-09-14T13:49:45.220Z,24.18
2022-09-14T13:52:38.588Z,24.19
2022-09-14T13:55:28.848Z,24.00
2022-09-14T13:58:07.890Z,23.38
2022-09-14T14:00:53.858Z,23.27
2022-09-14T14:03:37.998Z,23.20
2022-09-14T14:06:35.092Z,23.29
2022-09-14T14:09:09.451Z,22.62
2022-09-14T14:11:41.976Z,23.32
2022-09-14T14:14:12.472Z,23.60
2022-09-14T14:16:38.962Z,23.94
2022-09-14T14:19:05.506Z,23.63
2022-09-14T14:21:33.331Z,23.88
2022-09-14T14:24:27.185Z,23.74
2022-09-14T14:26:56.061Z,23.62
2022-09-14T14:29:23.083Z,23.50
2022-09-14T14:31:52.544Z,23.51
2022-09-14T14:34:25.865Z,23.50
2022-09-14T14:36:52.519Z,23.38
2022-09-14T14:39:21.227Z,22.95
2022-09-14T14:41:48.457Z,22.99
2022-09-14T14:44:28.122Z,23.56
2022-09-14T14:46:55.563Z,23.57
2022-09-14T14:49:22.703Z,22.90
2022-09-14T14:51:50.090Z,23.07
2022-09-14T14:54:20.100Z,23.38
2022-09-14T14:56:47.876Z,23.49
2022-09-14T14:59:20.227Z,23.15
2022-09-14T15:01:50.993Z,23.12
2022-09-14T15:04:17.688Z,22.50
2022-09-14T15:06:45.874Z,22.77
2022-09-14T15:09:18.216Z,23.14
2022-09-14T15:11:45.300Z,23.04
2022-09-14T15:14:13.674Z,23.09
2022-09-14T15:16:40.346Z,23.11
2022-09-14T15:19:06.815Z,22.45
2022-09-14T15:21:33.286Z,22.93
2022-09-14T15:23:59.813Z,23.10
2022-09-14T15:26:26.340Z,23.15
2022-09-14T15:28:52.787Z,23.36
2022-09-14T15:31:19.589Z,23.54
2022-09-14T15:33:47.278Z,23.41
2022-09-14T15:36:14.455Z,23.48
2022-09-14T15:38:40.947Z,23.48
2022-09-14T15:41:11.820Z,23.38
2022-09-14T15:43:38.305Z,22.98
2022-09-14T15:46:04.977Z,22.45
2022-09-14T15:48:31.472Z,22.96
2022-09-14T15:51:01.281Z,22.77
2022-09-14T15:53:27.661Z,23.05
2022-09-14T15:55:54.125Z,22.48
2022-09-14T15:58:20.842Z,22.31
2022-09-14T16:00:47.339Z,22.21
2022-09-14T16:03:13.771Z,21.93
2022-09-14T16:05:40.496Z,22.07
2022-09-14T16:08:07.305Z,22.09
2022-09-14T16:10:33.825Z,22.41
2022-09-14T16:13:00.303Z,22.40
2022-09-14T16:15:26.717Z,22.59
2022-09-14T16:17:53.531Z,22.66
2022-09-14T16:20:20.533Z,22.40
2022-09-14T16:22:48.132Z,22.02
2022-09-14T16:25:14.963Z,22.11
2022-09-14T16:27:41.879Z,21.98
2022-09-14T16:30:09.174Z,21.74
2022-09-14T16:32:35.648Z,22.13
2022-09-14T16:35:07.276Z,22.17
2022-09-14T16:37:34.740Z,21.98
2022-09-14T16:40:01.431Z,21.93
2022-09-14T16:42:27.956Z,21.86
2022-09-14T16:44:54.876Z,21.75
2022-09-14T16:47:25.818Z,22.01
2022-09-14T16:49:52.621Z,21.92
2022-09-14T16:52:19.217Z,21.68
2022-09-14T16:54:45.639Z,21.78
2022-09-14T16:57:12.566Z,22.00
2022-09-14T16:59:39.230Z,21.57
2022-09-14T17:02:06.215Z,21.76
2022-09-14T17:04:32.729Z,21.97
2022-09-14T17:06:59.271Z,21.96
2022-09-14T17:09:27.989Z,21.96
2022-09-14T17:11:55.633Z,21.89
2022-09-14T17:14:26.393Z,21.99
2022-09-14T17:16:53.326Z,22.00
2022-09-14T17:19:20.306Z,22.08
2022-09-14T17:21:47.758Z,22.10
2022-09-14T17:24:14.894Z,22.14
2022-09-14T17:26:41.914Z,22.06
2022-09-14T17:29:08.450Z,21.92
2022-09-14T17:31:38.079Z,22.10
2022-09-14T17:34:06.003Z,22.22
2022-09-14T17:36:33.058Z,22.15
2022-09-14T17:39:02.667Z,22.14
2022-09-14T17:41:33.941Z,22.04
2022-09-14T17:44:02.062Z,21.96
2022-09-14T17:46:29.301Z,21.81
2022-09-14T17:49:00.575Z,21.59
2022-09-14T17:51:28.443Z,21.67
2022-09-14T17:53:56.650Z,21.43
2022-09-14T17:56:24.606Z,21.52
2022-09-14T17:59:05.205Z,21.41
2022-09-14T18:01:32.413Z,21.45
2022-09-14T18:04:04.551Z,21.47
2022-09-14T18:06:34.439Z,21.40
2022-09-14T18:09:03.804Z,21.22
2022-09-14T18:11:31.104Z,21.13
2022-09-14T18:13:58.034Z,20.90
2022-09-14T18:16:25.239Z,20.79
2022-09-14T18:18:52.039Z,20.91
2022-09-14T18:21:18.721Z,20.93
2022-09-14T18:23:52.839Z,20.96
2022-09-14T18:26:19.744Z,21.03
2022-09-14T18:28:46.446Z,21.17
2022-09-14T18:31:15.877Z,21.20
2022-09-14T18:33:54.091Z,21.24
2022-09-14T18:36:21.451Z,21.28
2022-09-14T18:38:48.601Z,21.33
2022-09-14T18:41:16.431Z,21.21
2022-09-14T18:43:44.593Z,21.20
2022-09-14T18:46:13.873Z,21.22
2022-09-14T18:48:43.514Z,21.10
2022-09-14T18:51:11.378Z,20.88
2022-09-14T18:53:37.914Z,20.95
2022-09-14T18:56:06.562Z,20.76
2022-09-14T18:58:37.630Z,20.71
2022-09-14T19:01:04.611Z,20.70
2022-09-14T19:03:31.930Z,20.52
2022-09-14T19:05:59.230Z,20.47
2022-09-14T19:08:25.650Z,20.40
2022-09-14T19:10:52.196Z,20.31
2022-09-14T19:13:18.594Z,20.36
2022-09-14T19:15:45.091Z,20.27
2022-09-14T19:18:11.555Z,20.21
2022-09-14T19:21:04.693Z,20.15
2022-09-14T19:23:27.775Z,20.02
2022-09-14T19:25:54.248Z,20.01
2022-09-14T19:28:20.646Z,19.91
2022-09-14T19:30:48.687Z,19.82
2022-09-14T19:33:15.298Z,19.79
2022-09-14T19:35:41.757Z,19.82
2022-09-14T19:38:08.229Z,19.73
2022-09-14T19:40:34.902Z,19.64
2022-09-14T19:43:01.526Z,19.59
2022-09-14T19:45:28.051Z,19.53
2022-09-14T19:47:54.468Z,19.41
2022-09-14T19:50:20.879Z,19.45
2022-09-14T19:52:47.342Z,19.49
2022-09-14T19:55:13.725Z,19.42
2022-09-14T19:57:40.944Z,19.38
2022-09-14T20:00:10.465Z,19.33
2022-09-14T20:02:37.090Z,19.25
2022-09-14T20:05:03.949Z,19.29
2022-09-14T20:07:30.476Z,19.20
2022-09-14T20:09:57.198Z,19.17
2022-09-14T20:12:23.770Z,19.14
2022-09-14T20:14:50.224Z,19.06
2022-09-14T20:17:17.686Z,19.03
2022-09-14T20:19:44.199Z,19.04
2022-09-14T20:22:14.827Z,18.93
2022-09-14T20:24:43.044Z,18.93
2022-09-14T20:27:09.872Z,18.84
2022-09-14T20:29:36.472Z,18.71
2022-09-14T20:32:04.292Z,18.72
2022-09-14T20:34:31.023Z,18.74
2022-09-14T20:36:57.591Z,18.55
2022-09-14T20:39:24.226Z,18.55
2022-09-14T20:41:50.873Z,18.63
2022-09-14T20:44:22.115Z,18.79
2022-09-14T20:46:49.218Z,18.75
2022-09-14T20:49:19.920Z,18.70
2022-09-14T20:51:46.782Z,18.68
2022-09-14T20:54:14.769Z,18.64
2022-09-14T20:56:42.063Z,18.71
2022-09-14T20:59:12.872Z,18.44
2022-09-14T21:01:41.717Z,18.47
2022-09-14T21:04:13.571Z,18.18
2022-09-14T21:06:43.156Z,18.39
2022-09-14T21:09:10.558Z,18.26
2022-09-14T21:11:37.810Z,18.25
2022-09-14T21:14:04.490Z,18.40
2022-09-14T21:16:42.644Z,18.31
2022-09-14T21:19:11.966Z,18.26
2022-09-14T21:21:38.597Z,18.09
2022-09-14T21:24:07.422Z,18.05
2022-09-14T21:26:34.171Z,17.90
2022-09-14T21:29:03.320Z,17.92
2022-09-14T21:31:30.127Z,17.83
2022-09-14T21:33:58.899Z,17.86
2022-09-14T21:36:31.825Z,17.78
2022-09-14T21:38:59.879Z,17.92
2022-09-14T21:41:29.649Z,17.96
2022-09-14T21:43:56.915Z,17.75
2022-09-14T21:46:24.576Z,17.79
2022-09-14T21:48:51.569Z,17.76
2022-09-14T21:51:20.781Z,17.68
2022-09-14T21:54:05.218Z,17.61
2022-09-14T21:56:33.553Z,17.64
2022-09-14T21:59:02.891Z,17.62
2022-09-14T22:01:30.200Z,17.55
2022-09-14T22:03:57.401Z,17.46
2022-09-14T22:06:29.420Z,17.31
2022-09-14T22:08:58.492Z,17.47
2022-09-14T22:11:28.395Z,17.47
2022-09-14T22:13:56.861Z,17.47
2022-09-14T22:16:27.544Z,17.51
2022-09-14T22:18:56.411Z,17.40
2022-09-14T22:21:24.401Z,17.25
2022-09-14T22:23:52.592Z,17.48
2022-09-14T22:26:22.355Z,17.28
2022-09-14T22:28:50.596Z,17.38
2022-09-14T22:31:18.666Z,17.39
2022-09-14T22:33:45.377Z,17.28
2022-09-14T22:36:12.139Z,17.27
2022-09-14T22:38:40.961Z,17.24
2022-09-14T22:41:12.861Z,17.19
2022-09-14T22:43:40.222Z,17.22
2022-09-14T22:46:08.064Z,17.15
2022-09-14T22:48:34.940Z,17.19
2022-09-14T22:51:01.921Z,17.06
2022-09-14T22:53:29.504Z,17.12
2022-09-14T22:55:56.316Z,16.92
2022-09-14T22:58:24.900Z,16.91
2022-09-14T23:00:51.573Z,16.82
2022-09-14T23:03:18.633Z,16.88
2022-09-14T23:05:50.485Z,16.83
2022-09-14T23:08:18.237Z,16.82
2022-09-14T23:10:45.572Z,16.74
2022-09-14T23:13:12.047Z,16.62
2022-09-14T23:15:39.310Z,16.59
2022-09-14T23:18:06.587Z,16.58
2022-09-14T23:20:38.043Z,16.46
2022-09-14T23:23:04.642Z,16.44
2022-09-14T23:25:31.364Z,16.39
2022-09-14T23:27:57.755Z,16.49
2022-09-14T23:30:24.182Z,16.45
2022-09-14T23:32:50.576Z,16.39
2022-09-14T23:35:17.071Z,16.26
2022-09-14T23:37:43.642Z,16.22
2022-09-14T23:40:10.262Z,16.22
2022-09-14T23:42:36.783Z,16.15
2022-09-14T23:45:03.995Z,16.16
2022-09-14T23:47:30.424Z,16.27
2022-09-14T23:49:56.903Z,16.07
2022-09-14T23:52:24.181Z,16.24
2022-09-14T23:54:50.620Z,16.28
2022-09-14T23:57:17.038Z,16.33
2022-09-14T23:59:43.522Z,16.27
